Time;durP1;ratioP1;P1;durP2;ratioP2;P2;SDS_P1;SDS_P2;PMS_P1;PMS_P2;Temp;Humidity;BMP_temperature;BMP_pressure;BME280_temperature;BME280_humidity;BME280_pressure;Samples;Min_cycle;Max_cycle;Signal;HPM_P1;HPM_P2
2023/03/14 00:01:23;;;;;;;14.82;2.17;;;10.20;99.90;;;;;;5000491;28;20062;-73
2023/03/14 00:03:49;;;;;;;10.60;1.83;;;10.30;99.90;;;;;;5006329;28;20038;-70
2023/03/14 00:06:15;;;;;;;17.58;2.58;;;10.30;99.90;;;;;;5006415;28;20034;-69
2023/03/14 00:08:42;;;;;;;16.52;2.85;;;10.40;99.90;;;;;;5007385;28;20037;-70
2023/03/14 00:11:10;;;;;;;14.52;2.22;;;10.40;99.90;;;;;;5002515;28;20037;-73
2023/03/14 00:13:37;;;;;;;17.02;3.10;;;10.40;99.90;;;;;;5005646;28;20387;-71
2023/03/14 00:16:11;;;;;;;23.08;4.05;;;10.30;99.90;;;;;;4996756;28;20121;-72
2023/03/14 00:18:37;;;;;;;13.60;2.28;;;10.40;99.90;;;;;;5007088;28;20049;-69
2023/03/14 00:21:07;;;;;;;7.50;2.00;;;10.30;99.90;;;;;;5007141;28;20042;-70
2023/03/14 00:23:34;;;;;;;14.25;1.88;;;10.30;99.90;;;;;;5001204;28;20033;-76
2023/03/14 00:26:06;;;;;;;16.20;2.47;;;10.30;99.90;;;;;;5011875;28;20840;-72
2023/03/14 00:28:31;;;;;;;8.70;1.65;;;10.30;99.90;;;;;;5009637;28;20030;-70
2023/03/14 00:30:57;;;;;;;12.77;1.75;;;10.40;99.90;;;;;;5007027;28;20513;-71
2023/03/14 00:33:23;;;;;;;9.52;2.30;;;10.40;99.90;;;;;;5006703;28;20037;-70
2023/03/14 00:36:04;;;;;;;10.57;1.00;;;10.40;99.90;;;;;;5012417;28;20137;-70
2023/03/14 00:38:31;;;;;;;6.20;1.25;;;10.50;99.90;;;;;;5005121;28;20064;-70
2023/03/14 00:40:56;;;;;;;4.28;1.00;;;10.50;99.90;;;;;;5006867;28;20029;-72
2023/03/14 00:43:22;;;;;;;11.80;1.70;;;10.50;99.90;;;;;;5006285;28;20034;-71
2023/03/14 00:45:52;;;;;;;11.43;1.92;;;10.60;99.90;;;;;;5006704;28;20045;-71
2023/03/14 00:48:19;;;;;;;11.52;1.52;;;10.60;99.90;;;;;;5015193;28;20041;-74
2023/03/14 00:50:45;;;;;;;13.35;1.25;;;10.60;99.90;;;;;;5005879;28;20038;-73
2023/03/14 00:53:11;;;;;;;6.88;1.17;;;10.60;99.90;;;;;;5004701;28;20122;-69
2023/03/14 00:55:43;;;;;;;6.07;1.75;;;10.70;99.90;;;;;;5014082;28;20525;-70
2023/03/14 00:58:14;;;;;;;6.45;1.25;;;10.60;99.90;;;;;;5005897;28;20067;-73
2023/03/14 01:00:40;;;;;;;3.10;0.90;;;10.60;99.90;;;;;;5005303;28;20049;-71
2023/03/14 01:03:07;;;;;;;10.77;1.48;;;10.60;99.90;;;;;;5006007;28;20057;-71
2023/03/14 01:05:33;;;;;;;4.47;1.48;;;10.50;99.90;;;;;;5006082;28;20026;-73
2023/03/14 01:07:58;;;;;;;5.95;1.00;;;10.40;99.90;;;;;;5006715;28;20399;-73
2023/03/14 01:10:24;;;;;;;10.02;2.25;;;10.30;99.90;;;;;;4998762;28;20042;-71
2023/03/14 01:12:50;;;;;;;8.90;1.90;;;10.20;99.90;;;;;;5002567;28;20531;-69
2023/03/14 01:15:15;;;;;;;7.72;1.95;;;10.10;99.90;;;;;;5006028;28;20603;-74
2023/03/14 01:17:41;;;;;;;6.88;1.23;;;10.00;99.90;;;;;;5002442;28;20076;-76
2023/03/14 01:20:09;;;;;;;7.07;1.67;;;9.90;99.90;;;;;;5005757;28;20032;-70
2023/03/14 01:22:35;;;;;;;6.65;2.13;;;9.90;99.90;;;;;;5004771;28;20029;-69
2023/03/14 01:25:01;;;;;;;10.02;1.45;;;9.90;99.90;;;;;;5006577;28;20054;-69
2023/03/14 01:27:27;;;;;;;12.25;1.73;;;9.80;99.90;;;;;;5000939;28;20120;-71
2023/03/14 01:29:53;;;;;;;6.07;0.70;;;9.90;99.90;;;;;;5003917;28;20104;-72
2023/03/14 01:32:18;;;;;;;5.70;1.75;;;9.80;99.90;;;;;;5006038;28;20038;-71
2023/03/14 01:34:44;;;;;;;7.07;0.95;;;9.90;99.90;;;;;;5005479;28;20030;-74
2023/03/14 01:37:11;;;;;;;9.23;0.90;;;9.90;99.90;;;;;;5005980;28;20125;-70
2023/03/14 01:39:37;;;;;;;17.70;2.40;;;9.90;99.90;;;;;;5005508;28;20030;-70
2023/03/14 01:42:03;;;;;;;5.72;1.70;;;9.80;99.90;;;;;;5005232;28;20038;-70
2023/03/14 01:44:45;;;;;;;13.82;1.77;;;9.80;99.90;;;;;;5004309;28;20469;-77
2023/03/14 01:47:10;;;;;;;8.25;1.00;;;9.80;99.90;;;;;;5005702;28;20084;-73
2023/03/14 01:49:36;;;;;;;12.10;1.65;;;9.90;99.90;;;;;;5004718;28;20363;-70
2023/03/14 01:52:12;;;;;;;6.13;0.63;;;9.90;99.90;;;;;;5004346;28;20064;-70
2023/03/14 01:54:42;;;;;;;5.57;0.68;;;9.90;99.90;;;;;;5004811;28;20443;-69
2023/03/14 01:57:31;;;;;;;9.48;1.33;;;9.90;99.90;;;;;;5005388;28;20038;-72
2023/03/14 02:00:20;;;;;;;13.68;1.05;;;9.90;99.90;;;;;;5004374;28;20030;-70
2023/03/14 02:02:53;;;;;;;7.65;1.33;;;10.00;99.90;;;;;;5005564;28;20049;-73
2023/03/14 02:05:23;;;;;;;8.60;1.35;;;10.00;99.90;;;;;;5005444;28;20054;-72
2023/03/14 02:07:52;;;;;;;5.20;1.33;;;10.10;99.90;;;;;;5004202;28;20034;-69
2023/03/14 02:10:22;;;;;;;9.60;0.85;;;10.10;99.90;;;;;;5005395;28;20022;-70
2023/03/14 02:12:48;;;;;;;4.43;0.90;;;10.10;99.90;;;;;;5005660;28;20434;-70
2023/03/14 02:15:14;;;;;;;4.43;0.70;;;10.10;99.90;;;;;;5005400;28;20331;-72
2023/03/14 02:17:42;;;;;;;18.38;1.02;;;10.00;99.90;;;;;;5005404;28;20053;-74
2023/03/14 02:20:27;;;;;;;6.88;1.10;;;10.00;99.90;;;;;;5005235;28;20056;-73
2023/03/14 02:22:53;;;;;;;9.60;1.70;;;10.10;99.90;;;;;;5005598;28;20040;-72
2023/03/14 02:26:07;;;;;;;9.40;1.13;;;10.10;99.90;;;;;;5002577;28;20034;-73
2023/03/14 02:28:32;;;;;;;5.05;0.57;;;10.10;99.90;;;;;;4984309;28;20066;-69
2023/03/14 02:30:58;;;;;;;3.38;1.00;;;10.00;99.90;;;;;;5004842;28;20096;-69
2023/03/14 02:33:24;;;;;;;7.00;1.35;;;10.00;99.90;;;;;;5004602;28;20033;-70
2023/03/14 02:35:59;;;;;;;5.78;0.90;;;10.00;99.90;;;;;;5004505;28;20048;-73
2023/03/14 02:38:46;;;;;;;6.88;0.98;;;10.00;99.90;;;;;;5004988;28;20038;-73
2023/03/14 02:41:12;;;;;;;4.40;0.77;;;10.00;99.90;;;;;;4996319;28;20034;-72
2023/03/14 02:43:40;;;;;;;5.43;0.80;;;10.00;99.90;;;;;;5004786;28;20079;-71
2023/03/14 02:46:10;;;;;;;6.28;0.50;;;10.10;99.90;;;;;;5011954;28;20034;-71
2023/03/14 02:48:45;;;;;;;5.75;1.95;;;10.10;99.90;;;;;;4997174;28;20026;-69
2023/03/14 02:51:11;;;;;;;4.35;0.60;;;10.00;99.90;;;;;;5008558;28;20038;-70
2023/03/14 02:53:38;;;;;;;13.55;1.80;;;10.00;99.90;;;;;;4999536;28;20041;-69
2023/03/14 02:56:04;;;;;;;5.03;0.90;;;10.00;99.90;;;;;;5001804;28;20030;-73
2023/03/14 02:58:30;;;;;;;8.90;0.70;;;10.00;99.90;;;;;;4994211;28;20136;-70
2023/03/14 03:00:56;;;;;;;5.18;0.73;;;10.00;99.90;;;;;;4997099;28;20125;-70
2023/03/14 03:03:22;;;;;;;7.07;1.00;;;10.00;99.90;;;;;;5005247;28;20042;-72
2023/03/14 03:05:52;;;;;;;8.05;1.05;;;10.10;99.90;;;;;;5003491;28;20468;-72
2023/03/14 03:08:23;;;;;;;3.67;0.95;;;10.00;99.90;;;;;;5008633;28;20042;-70
2023/03/14 03:10:48;;;;;;;;;;;10.00;99.90;;;;;;5007144;28;20080;-72
2023/03/14 03:13:15;;;;;;;4.45;0.80;;;10.00;99.90;;;;;;5000534;28;20390;-71
2023/03/14 03:15:40;;;;;;;11.40;1.13;;;10.00;99.90;;;;;;5000765;28;20320;-71
2023/03/14 03:18:06;;;;;;;3.10;0.65;;;10.00;99.90;;;;;;5008618;28;20486;-70
2023/03/14 03:20:38;;;;;;;5.57;0.90;;;10.00;99.90;;;;;;5007158;28;20038;-73
2023/03/14 03:23:04;;;;;;;5.68;2.20;;;10.10;99.90;;;;;;5007002;28;20046;-72
2023/03/14 03:25:30;;;;;;;6.55;1.45;;;10.00;99.90;;;;;;5005302;28;20394;-74
2023/03/14 03:27:55;;;;;;;4.22;0.95;;;10.00;99.90;;;;;;5009923;28;20030;-70
2023/03/14 03:30:21;;;;;;;7.88;1.17;;;10.00;99.90;;;;;;5007607;28;20083;-74
2023/03/14 03:32:47;;;;;;;10.73;1.17;;;10.00;99.90;;;;;;5007532;28;20060;-71
2023/03/14 03:35:13;;;;;;;5.30;1.45;;;9.90;99.90;;;;;;5007938;28;20457;-72
2023/03/14 03:37:39;;;;;;;7.63;0.90;;;9.90;99.90;;;;;;5007606;28;20137;-72
2023/03/14 03:40:06;;;;;;;6.78;1.17;;;10.00;99.90;;;;;;5007748;28;20030;-70
2023/03/14 03:42:33;;;;;;;11.10;2.03;;;10.00;99.90;;;;;;5007243;28;20034;-70
2023/03/14 03:45:00;;;;;;;9.93;1.45;;;10.00;99.90;;;;;;5007995;28;20116;-73
2023/03/14 03:47:25;;;;;;;6.38;0.95;;;10.00;99.90;;;;;;5013974;28;20042;-73
2023/03/14 03:49:51;;;;;;;9.20;1.65;;;10.10;99.90;;;;;;4996610;28;20092;-73
2023/03/14 03:52:17;;;;;;;10.50;1.48;;;10.10;99.90;;;;;;5007770;28;20617;-76
2023/03/14 03:54:43;;;;;;;9.20;1.33;;;10.10;99.90;;;;;;5005801;28;20036;-70
2023/03/14 03:57:08;;;;;;;14.80;1.83;;;10.10;99.90;;;;;;5003175;28;20037;-69
2023/03/14 03:59:34;;;;;;;8.80;0.80;;;10.10;99.90;;;;;;5006889;28;20489;-72
2023/03/14 04:02:00;;;;;;;14.05;1.23;;;10.10;99.90;;;;;;5014639;28;20109;-74
2023/03/14 04:04:25;;;;;;;5.38;1.30;;;10.20;99.90;;;;;;5005641;28;20053;-71
2023/03/14 04:06:51;;;;;;;5.85;1.20;;;10.10;99.90;;;;;;5003770;28;20065;-71
2023/03/14 04:09:16;;;;;;;8.63;1.08;;;10.20;99.90;;;;;;5005490;28;20022;-71
2023/03/14 04:11:42;;;;;;;8.10;1.38;;;10.20;99.90;;;;;;5006730;28;20486;-75
2023/03/14 04:14:13;;;;;;;6.70;1.40;;;10.10;99.90;;;;;;5006678;28;20030;-71
2023/03/14 04:16:39;;;;;;;10.10;2.22;;;10.10;99.90;;;;;;5005629;28;20026;-72
2023/03/14 04:19:08;;;;;;;11.23;1.15;;;10.10;99.90;;;;;;5006037;28;20091;-73
2023/03/14 04:21:33;;;;;;;8.27;0.85;;;10.10;99.90;;;;;;5006253;28;20030;-71
2023/03/14 04:23:59;;;;;;;11.02;1.83;;;10.10;99.90;;;;;;5006937;28;20056;-74
2023/03/14 04:26:24;;;;;;;11.88;1.75;;;10.10;99.90;;;;;;5009359;28;20037;-70
2023/03/14 04:28:50;;;;;;;4.82;0.90;;;10.10;99.90;;;;;;5005493;28;20422;-69
2023/03/14 04:31:18;;;;;;;4.10;0.95;;;10.20;99.90;;;;;;5006441;28;20069;-73
2023/03/14 04:33:44;;;;;;;7.82;1.65;;;10.20;99.90;;;;;;5006028;28;20057;-72
2023/03/14 04:36:10;;;;;;;8.82;1.52;;;10.20;99.90;;;;;;5006978;28;20030;-72
2023/03/14 04:38:36;;;;;;;8.85;2.10;;;10.20;99.90;;;;;;5004812;28;20073;-71
2023/03/14 04:41:02;;;;;;;6.40;0.68;;;10.20;99.90;;;;;;5006700;28;20097;-69
2023/03/14 04:43:28;;;;;;;9.88;1.48;;;10.20;99.90;;;;;;5006536;28;20640;-77
2023/03/14 04:45:55;;;;;;;6.90;1.08;;;10.20;99.90;;;;;;5006425;28;20026;-72
2023/03/14 04:48:21;;;;;;;5.28;1.45;;;10.20;99.90;;;;;;5005944;28;20129;-71
2023/03/14 04:50:47;;;;;;;8.52;0.85;;;10.20;99.90;;;;;;5006523;28;20120;-70
2023/03/14 04:53:13;;;;;;;6.50;1.42;;;10.10;99.90;;;;;;5003316;28;20060;-71
2023/03/14 04:55:39;;;;;;;9.70;0.90;;;10.00;99.90;;;;;;5007351;28;20477;-70
2023/03/14 04:58:05;;;;;;;12.38;1.58;;;9.90;99.90;;;;;;5008263;28;20063;-73
2023/03/14 05:00:30;;;;;;;3.78;0.93;;;9.80;99.90;;;;;;5006966;28;20114;-72
2023/03/14 05:02:56;;;;;;;12.10;1.27;;;9.70;99.90;;;;;;5007970;28;20069;-70
2023/03/14 05:05:22;;;;;;;8.35;1.15;;;9.60;99.90;;;;;;5006720;28;20045;-73
2023/03/14 05:07:47;;;;;;;2.97;0.55;;;9.60;99.90;;;;;;4998771;28;20026;-70
2023/03/14 05:10:13;;;;;;;10.13;1.10;;;9.50;99.90;;;;;;4998517;28;20029;-69
2023/03/14 05:12:39;;;;;;;4.93;1.13;;;9.50;99.90;;;;;;5002364;28;20480;-71
2023/03/14 05:15:05;;;;;;;3.33;1.10;;;9.50;99.90;;;;;;5005201;28;20030;-71
2023/03/14 05:17:32;;;;;;;6.93;2.00;;;9.50;99.90;;;;;;5005784;28;20030;-71
2023/03/14 05:19:58;;;;;;;6.60;0.95;;;9.50;99.90;;;;;;5006484;28;20042;-73
2023/03/14 05:22:24;;;;;;;12.20;1.40;;;9.40;99.90;;;;;;5006190;28;20113;-73
2023/03/14 05:24:49;;;;;;;7.07;1.17;;;9.30;99.90;;;;;;5005271;28;20030;-70
2023/03/14 05:27:15;;;;;;;7.57;0.80;;;9.40;99.90;;;;;;5006417;28;20059;-70
2023/03/14 05:29:40;;;;;;;6.22;1.55;;;9.30;99.90;;;;;;5005594;28;20474;-77
2023/03/14 05:32:06;;;;;;;9.95;1.15;;;9.30;99.90;;;;;;5006160;28;20057;-70
2023/03/14 05:34:32;;;;;;;12.43;1.33;;;9.30;99.90;;;;;;5001999;28;20030;-70
2023/03/14 05:36:57;;;;;;;11.70;1.45;;;9.30;99.90;;;;;;5006635;28;20469;-70
2023/03/14 05:39:23;;;;;;;9.07;1.45;;;9.30;99.90;;;;;;5004546;28;20386;-74
2023/03/14 05:41:49;;;;;;;4.55;1.42;;;9.30;99.90;;;;;;4997909;28;20088;-69
2023/03/14 05:44:14;;;;;;;5.70;1.98;;;9.30;99.90;;;;;;5005999;28;20022;-70
2023/03/14 05:46:40;;;;;;;6.28;1.88;;;9.30;99.90;;;;;;5005732;28;20045;-71
2023/03/14 05:49:05;;;;;;;7.22;2.03;;;9.30;99.90;;;;;;5005510;28;20026;-75
2023/03/14 05:51:31;;;;;;;8.00;2.10;;;9.30;99.90;;;;;;4998044;28;20035;-69
2023/03/14 05:53:56;;;;;;;6.80;2.13;;;9.20;99.90;;;;;;5003030;28;20030;-70
2023/03/14 05:56:22;;;;;;;7.75;2.50;;;9.20;99.90;;;;;;5003256;28;20125;-77
2023/03/14 05:58:47;;;;;;;7.13;2.20;;;9.20;99.90;;;;;;5003781;28;20049;-70
2023/03/14 06:01:13;;;;;;;8.70;1.80;;;9.20;99.90;;;;;;5005084;28;20141;-72
2023/03/14 06:03:39;;;;;;;5.88;2.28;;;9.30;99.90;;;;;;4996425;28;20057;-74
2023/03/14 06:06:04;;;;;;;6.95;2.30;;;9.30;99.90;;;;;;4998429;28;20386;-69
2023/03/14 06:08:30;;;;;;;10.18;1.80;;;9.30;99.90;;;;;;5000228;28;20049;-70
2023/03/14 06:10:57;;;;;;;4.15;1.35;;;9.30;99.90;;;;;;4996763;28;20045;-74
2023/03/14 06:13:22;;;;;;;5.10;1.48;;;9.30;99.90;;;;;;5004019;28;20144;-71
2023/03/14 06:15:48;;;;;;;7.00;2.08;;;9.20;99.90;;;;;;5001211;28;20124;-71
2023/03/14 06:18:14;;;;;;;3.85;0.65;;;9.10;99.90;;;;;;5001280;28;20403;-71
2023/03/14 06:20:39;;;;;;;4.13;1.23;;;8.90;99.90;;;;;;4999987;28;20045;-72
2023/03/14 06:23:06;;;;;;;3.72;0.38;;;8.80;99.90;;;;;;5002963;28;20073;-72
2023/03/14 06:25:32;;;;;;;5.38;0.85;;;8.60;99.90;;;;;;4998746;28;20026;-74
2023/03/14 06:27:58;;;;;;;2.75;0.57;;;8.50;99.90;;;;;;5001650;28;20486;-72
2023/03/14 06:30:23;;;;;;;3.10;0.95;;;8.40;99.90;;;;;;5001283;28;20042;-71
2023/03/14 06:32:49;;;;;;;8.40;0.35;;;8.30;99.90;;;;;;5001480;28;20044;-73
2023/03/14 06:35:15;;;;;;;3.17;0.30;;;8.30;99.90;;;;;;4999656;28;20038;-72
2023/03/14 06:37:41;;;;;;;5.30;0.95;;;8.20;99.90;;;;;;5001196;28;20034;-73
2023/03/14 06:40:08;;;;;;;1.60;0.20;;;8.10;99.90;;;;;;5002202;28;20713;-73
2023/03/14 06:42:33;;;;;;;2.17;0.30;;;8.10;99.90;;;;;;5018650;28;20030;-72
2023/03/14 06:44:59;;;;;;;2.70;0.30;;;8.00;99.90;;;;;;5005565;28;20036;-70
2023/03/14 06:47:25;;;;;;;1.85;0.38;;;8.00;99.90;;;;;;5005333;28;20521;-72
2023/03/14 06:49:50;;;;;;;3.40;0.50;;;8.00;99.90;;;;;;5003134;28;20041;-72
2023/03/14 06:52:16;;;;;;;2.97;0.38;;;7.90;99.90;;;;;;5005455;28;20095;-75
2023/03/14 06:54:41;;;;;;;0.63;0.10;;;8.00;99.90;;;;;;5003179;28;20129;-73
2023/03/14 06:57:07;;;;;;;1.55;0.38;;;8.00;99.90;;;;;;5005316;28;20045;-77
2023/03/14 06:59:33;;;;;;;1.33;0.30;;;7.90;99.90;;;;;;5003034;28;20354;-70
2023/03/14 07:01:58;;;;;;;3.95;0.30;;;8.00;99.90;;;;;;5004613;28;20494;-71
2023/03/14 07:04:24;;;;;;;4.95;0.50;;;8.00;99.90;;;;;;5003780;28;20129;-71
2023/03/14 07:06:49;;;;;;;2.75;0.60;;;8.00;99.90;;;;;;5000342;28;20037;-74
2023/03/14 07:09:17;;;;;;;3.80;0.40;;;8.00;99.90;;;;;;5003317;28;20029;-70
2023/03/14 07:11:43;;;;;;;3.20;1.05;;;7.90;99.90;;;;;;5006266;28;20076;-73
2023/03/14 07:14:08;;;;;;;3.65;0.63;;;7.90;99.90;;;;;;5006181;28;20048;-72
2023/03/14 07:16:34;;;;;;;4.90;0.50;;;7.90;99.90;;;;;;5006037;28;20030;-73
2023/03/14 07:19:00;;;;;;;5.68;1.40;;;7.90;99.90;;;;;;5004333;28;20073;-70
2023/03/14 07:21:26;;;;;;;1.92;0.50;;;7.80;99.90;;;;;;5005535;28;20034;-70
2023/03/14 07:23:51;;;;;;;6.63;1.70;;;7.80;99.90;;;;;;5004342;28;20149;-74
2023/03/14 07:26:17;;;;;;;10.65;0.70;;;7.90;99.90;;;;;;5003558;28;20048;-70
2023/03/14 07:28:43;;;;;;;4.60;1.27;;;7.80;99.90;;;;;;5004361;28;20034;-73
2023/03/14 07:31:09;;;;;;;4.78;0.65;;;7.80;99.90;;;;;;5004391;28;20376;-72
2023/03/14 07:33:35;;;;;;;5.15;0.70;;;7.80;99.90;;;;;;5002719;28;20034;-74
2023/03/14 07:36:00;;;;;;;2.13;0.60;;;7.80;99.90;;;;;;5004308;28;20044;-71
2023/03/14 07:38:26;;;;;;;6.22;0.55;;;7.80;99.90;;;;;;5003912;28;20045;-70
2023/03/14 07:41:05;;;;;;;2.40;0.30;;;7.70;99.90;;;;;;5002482;28;20073;-71
2023/03/14 07:43:30;;;;;;;3.03;0.50;;;7.70;99.90;;;;;;5002750;28;20383;-74
2023/03/14 07:45:56;;;;;;;3.72;0.90;;;7.70;99.90;;;;;;5004198;28;20036;-72
2023/03/14 07:48:24;;;;;;;5.60;0.52;;;7.70;99.90;;;;;;5001936;28;20034;-76
2023/03/14 07:50:53;;;;;;;6.88;0.82;;;7.70;99.90;;;;;;5003781;28;20513;-73
2023/03/14 07:53:20;;;;;;;0.98;0.40;;;7.80;99.90;;;;;;5003189;28;20073;-72
2023/03/14 07:55:46;;;;;;;6.25;0.45;;;7.80;99.90;;;;;;5003568;28;20030;-70
2023/03/14 07:58:12;;;;;;;4.85;0.90;;;7.70;99.90;;;;;;5003878;28;20042;-73
2023/03/14 08:00:38;;;;;;;2.00;0.50;;;7.70;99.90;;;;;;5003224;28;20053;-70
2023/03/14 08:03:04;;;;;;;2.50;0.43;;;7.70;99.90;;;;;;5004467;28;20033;-72
2023/03/14 08:05:30;;;;;;;8.65;0.77;;;7.60;99.90;;;;;;5005183;28;20394;-72
2023/03/14 08:07:55;;;;;;;5.68;1.02;;;7.60;99.90;;;;;;5007700;28;20042;-71
2023/03/14 08:10:24;;;;;;;1.92;0.30;;;7.50;99.90;;;;;;5004050;28;20032;-72
2023/03/14 08:13:00;;;;;;;2.88;0.75;;;7.40;99.90;;;;;;5005424;28;20033;-72
2023/03/14 08:15:27;;;;;;;5.53;0.30;;;7.20;99.90;;;;;;5003305;28;20037;-71
2023/03/14 08:17:53;;;;;;;1.13;0.10;;;6.90;99.90;;;;;;5003522;28;20030;-75
2023/03/14 08:20:20;;;;;;;4.95;0.35;;;6.80;99.90;;;;;;5003243;28;20095;-75
2023/03/14 08:22:47;;;;;;;2.35;0.10;;;6.70;99.90;;;;;;5003304;28;20376;-70
2023/03/14 08:25:12;;;;;;;1.35;0.38;;;6.60;99.90;;;;;;5000166;28;20594;-78
2023/03/14 08:27:38;;;;;;;5.68;0.68;;;6.50;99.90;;;;;;5005598;28;20046;-73
2023/03/14 08:30:09;;;;;;;11.65;1.27;;;6.50;99.90;;;;;;5003188;28;20112;-73
2023/03/14 08:32:35;;;;;;;4.65;0.30;;;6.50;99.90;;;;;;5002561;28;20049;-70
2023/03/14 08:35:01;;;;;;;3.03;0.30;;;6.40;99.90;;;;;;5003849;28;20030;-76
2023/03/14 08:37:27;;;;;;;5.00;0.32;;;6.40;99.90;;;;;;5001910;28;20037;-75
2023/03/14 08:39:52;;;;;;;1.80;0.20;;;6.40;99.90;;;;;;5006051;28;20100;-71
2023/03/14 08:42:18;;;;;;;6.88;0.30;;;6.50;99.90;;;;;;5004655;28;20545;-70
2023/03/14 08:44:44;;;;;;;1.38;0.10;;;6.50;99.90;;;;;;5002960;28;20076;-73
2023/03/14 08:47:09;;;;;;;6.72;0.20;;;6.60;99.90;;;;;;5001107;28;20033;-73
2023/03/14 08:49:35;;;;;;;1.13;0.10;;;6.70;99.90;;;;;;5002748;28;20030;-71
2023/03/14 08:52:04;;;;;;;2.28;0.22;;;6.80;99.90;;;;;;5002689;28;20048;-71
2023/03/14 08:54:31;;;;;;;3.67;0.57;;;7.00;99.90;;;;;;5001008;28;20064;-72
2023/03/14 08:56:57;;;;;;;4.53;1.33;;;7.20;99.90;;;;;;5001838;28;20097;-70
2023/03/14 08:59:23;;;;;;;1.27;0.17;;;7.30;99.90;;;;;;5001988;28;20041;-70
2023/03/14 09:01:50;;;;;;;7.32;1.20;;;7.30;99.90;;;;;;5002320;28;20140;-75
2023/03/14 09:04:16;;;;;;;3.35;0.43;;;7.40;99.90;;;;;;5001403;28;20109;-74
2023/03/14 09:06:42;;;;;;;9.25;1.63;;;7.30;99.90;;;;;;5002454;28;20782;-76
2023/03/14 09:09:07;;;;;;;4.75;0.47;;;7.40;99.90;;;;;;5001310;28;20034;-70
2023/03/14 09:11:33;;;;;;;7.20;0.55;;;7.50;99.90;;;;;;5001620;28;20427;-71
2023/03/14 09:14:02;;;;;;;5.75;1.33;;;7.60;99.90;;;;;;5001224;28;20061;-74
2023/03/14 09:16:27;;;;;;;8.07;1.35;;;7.70;99.90;;;;;;5000311;28;20034;-70
2023/03/14 09:18:54;;;;;;;7.65;0.85;;;7.70;99.90;;;;;;5002844;28;20095;-70
2023/03/14 09:21:21;;;;;;;7.55;0.80;;;7.80;99.90;;;;;;5000006;28;20041;-74
2023/03/14 09:23:47;;;;;;;8.10;1.02;;;7.70;99.90;;;;;;4998246;28;20514;-75
2023/03/14 09:26:12;;;;;;;10.85;1.05;;;7.70;99.90;;;;;;4999761;28;20499;-71
2023/03/14 09:28:38;;;;;;;3.83;0.52;;;7.70;99.90;;;;;;5003008;28;20124;-71
2023/03/14 09:31:09;;;;;;;4.40;0.63;;;7.60;99.90;;;;;;5002091;28;20054;-74
2023/03/14 09:33:35;;;;;;;5.82;1.67;;;7.60;99.90;;;;;;5001457;28;20115;-72
2023/03/14 09:36:01;;;;;;;4.45;1.70;;;7.50;99.90;;;;;;5002276;28;20030;-78
2023/03/14 09:38:27;;;;;;;9.13;1.00;;;7.60;99.90;;;;;;5002091;28;20037;-72
2023/03/14 09:40:53;;;;;;;7.72;1.30;;;7.60;99.90;;;;;;5003079;28;20548;-72
2023/03/14 09:43:22;;;;;;;8.45;1.52;;;7.60;99.90;;;;;;5002641;28;20066;-72
2023/03/14 09:45:49;;;;;;;13.18;1.88;;;7.60;99.90;;;;;;5001833;28;20048;-73
2023/03/14 09:48:20;;;;;;;5.50;0.70;;;7.60;99.90;;;;;;4998712;28;20081;-73
2023/03/14 09:50:49;;;;;;;23.33;1.80;;;7.70;99.90;;;;;;4999167;28;20041;-70
2023/03/14 09:53:34;;;;;;;7.50;2.10;;;7.70;99.90;;;;;;5000971;28;20042;-73
2023/03/14 09:56:00;;;;;;;9.35;1.95;;;7.70;99.90;;;;;;5002594;28;20486;-73
2023/03/14 09:58:25;;;;;;;12.85;1.48;;;7.70;99.90;;;;;;5001799;28;20053;-76
2023/03/14 10:00:55;;;;;;;11.43;1.13;;;7.60;99.90;;;;;;5001510;28;20068;-73
2023/03/14 10:03:32;;;;;;;17.27;2.22;;;7.60;99.90;;;;;;5004311;28;20038;-74
2023/03/14 10:05:58;;;;;;;12.20;1.27;;;7.50;99.90;;;;;;5003299;28;20037;-71
2023/03/14 10:08:24;;;;;;;27.08;3.63;;;7.40;99.90;;;;;;5004204;28;20395;-74
2023/03/14 10:10:49;;;;;;;13.32;1.38;;;7.30;99.90;;;;;;4999546;28;20441;-70
2023/03/14 10:13:21;;;;;;;3.83;1.15;;;7.30;99.90;;;;;;5001478;28;20049;-74
2023/03/14 10:15:58;;;;;;;8.35;2.55;;;7.00;99.90;;;;;;5004562;28;20034;-73
2023/03/14 10:18:24;;;;;;;7.40;1.48;;;6.70;99.90;;;;;;5008789;28;20041;-72
2023/03/14 10:21:07;;;;;;;9.90;0.93;;;6.60;99.90;;;;;;4998484;28;20026;-73
2023/03/14 10:23:34;;;;;;;11.38;0.95;;;6.60;99.90;;;;;;5005321;28;20092;-70
2023/03/14 10:26:06;;;;;;;8.75;1.67;;;6.80;99.90;;;;;;5006392;28;20028;-71
2023/03/14 10:28:39;;;;;;;18.30;1.52;;;6.90;99.90;;;;;;5007366;28;20038;-72
2023/03/14 10:31:05;;;;;;;9.85;2.20;;;7.10;99.90;;;;;;5019598;28;20571;-75
2023/03/14 10:33:33;;;;;;;13.90;1.88;;;7.20;99.90;;;;;;5007877;28;20041;-75
2023/03/14 10:36:05;;;;;;;16.27;2.38;;;7.30;99.90;;;;;;5005339;28;20036;-73
2023/03/14 10:38:33;;;;;;;13.25;1.58;;;7.50;99.90;;;;;;5003113;28;20052;-77
2023/03/14 10:41:00;;;;;;;13.60;2.17;;;7.60;99.90;;;;;;5006677;28;20033;-71
2023/03/14 10:43:34;;;;;;;11.35;1.73;;;7.80;99.90;;;;;;5002660;28;20045;-69
2023/03/14 10:46:15;;;;;;;16.55;1.83;;;7.90;99.90;;;;;;5005811;28;20044;-75
2023/03/14 10:48:41;;;;;;;15.20;1.80;;;7.80;99.90;;;;;;5009811;28;20060;-70
2023/03/14 10:51:10;;;;;;;13.38;1.90;;;7.60;99.90;;;;;;5001962;28;20065;-75
2023/03/14 10:53:44;;;;;;;16.15;5.00;;;7.40;99.90;;;;;;5003935;28;20751;-74
2023/03/14 10:56:21;;;;;;;17.02;1.90;;;7.20;99.90;;;;;;4999957;28;20049;-72
2023/03/14 10:58:50;;;;;;;19.02;3.58;;;7.30;99.90;;;;;;5003448;28;20057;-71
2023/03/14 11:01:53;;;;;;;11.60;1.90;;;7.20;99.90;;;;;;5005815;28;20026;-75
2023/03/14 11:04:42;;;;;;;14.93;2.55;;;7.30;99.90;;;;;;5001498;28;20048;-72
2023/03/14 11:07:15;;;;;;;15.15;1.85;;;7.40;99.90;;;;;;5002297;28;20144;-75
2023/03/14 11:09:44;;;;;;;9.65;2.00;;;7.40;99.90;;;;;;5002357;28;20103;-70
2023/03/14 11:12:49;;;;;;;11.63;1.83;;;7.50;99.90;;;;;;5002686;28;20037;-75
2023/03/14 11:15:40;;;;;;;10.93;1.90;;;7.50;99.90;;;;;;5003054;28;20038;-74
2023/03/14 11:18:25;;;;;;;8.18;1.48;;;7.60;99.90;;;;;;5002071;28;20042;-72
2023/03/14 11:21:00;;;;;;;16.52;2.67;;;7.80;99.90;;;;;;5013282;28;20052;-72
2023/03/14 11:23:46;;;;;;;20.90;2.72;;;8.00;99.90;;;;;;5002794;28;20152;-71
2023/03/14 11:26:26;;;;;;;20.67;2.20;;;8.10;99.90;;;;;;5001751;28;20065;-72
2023/03/14 11:28:58;;;;;;;13.45;1.73;;;8.20;99.90;;;;;;5002678;28;22273;-72
2023/03/14 11:31:29;;;;;;;8.27;0.75;;;8.40;99.90;;;;;;5003263;28;20038;-70
2023/03/14 11:34:09;;;;;;;16.13;1.40;;;8.50;99.90;;;;;;5003313;28;20034;-73
2023/03/14 11:36:41;;;;;;;16.00;2.17;;;8.60;99.90;;;;;;5003019;28;20564;-72
2023/03/14 11:39:18;;;;;;;11.77;1.20;;;8.60;99.90;;;;;;5004878;28;20510;-79
2023/03/14 11:41:46;;;;;;;6.80;0.77;;;8.70;99.90;;;;;;5004532;28;20630;-73
2023/03/14 11:44:25;;;;;;;8.35;1.67;;;8.60;99.90;;;;;;5006362;28;20442;-73
2023/03/14 11:46:57;;;;;;;4.95;0.73;;;8.70;99.90;;;;;;5005622;28;20038;-71
2023/03/14 11:49:40;;;;;;;5.63;0.52;;;8.80;99.90;;;;;;5003873;28;20041;-72
2023/03/14 11:52:16;;;;;;;11.50;0.80;;;8.80;99.90;;;;;;4999707;28;20141;-72
2023/03/14 11:55:13;;;;;;;11.98;2.30;;;8.90;99.90;;;;;;4999631;28;20121;-72
2023/03/14 11:57:40;;;;;;;2.85;1.10;;;8.90;99.90;;;;;;5000337;28;20141;-72
2023/03/14 12:00:20;;;;;;;8.57;0.47;;;9.00;99.90;;;;;;5003197;28;20517;-73
2023/03/14 12:02:56;;;;;;;8.82;1.30;;;8.90;99.40;;;;;;4999090;28;20812;-71
2023/03/14 12:05:48;;;;;;;6.30;1.00;;;8.90;99.90;;;;;;5003248;28;20669;-71
2023/03/14 12:08:33;;;;;;;6.03;0.82;;;9.10;99.90;;;;;;5001204;28;20042;-73
2023/03/14 12:11:19;;;;;;;4.28;0.73;;;9.20;99.90;;;;;;4998508;28;20048;-72
2023/03/14 12:13:52;;;;;;;13.60;0.82;;;9.10;98.10;;;;;;5000437;28;20037;-72
2023/03/14 12:16:37;;;;;;;6.95;0.90;;;9.00;97.80;;;;;;5002203;28;20041;-72
2023/03/14 12:19:15;;;;;;;6.88;0.73;;;8.80;98.00;;;;;;5001750;28;20866;-72
2023/03/14 12:22:15;;;;;;;4.43;0.85;;;8.70;99.70;;;;;;5000442;28;20064;-73
2023/03/14 12:24:48;;;;;;;7.10;0.90;;;8.70;99.10;;;;;;4996998;28;20421;-72
2023/03/14 12:27:39;;;;;;;4.18;1.10;;;8.60;98.20;;;;;;5001559;28;20049;-73
2023/03/14 12:30:32;;;;;;;11.52;1.55;;;8.50;98.00;;;;;;4999949;28;20128;-72
2023/03/14 12:33:10;;;;;;;8.57;1.23;;;8.50;98.10;;;;;;5003932;28;20037;-72
2023/03/14 12:35:38;;;;;;;13.77;1.40;;;8.50;97.90;;;;;;4998782;28;20053;-73
2023/03/14 12:38:17;;;;;;;4.32;0.40;;;8.60;98.30;;;;;;5000958;28;20069;-72
2023/03/14 12:41:08;;;;;;;8.60;0.93;;;8.50;97.80;;;;;;5013641;28;20104;-73
2023/03/14 12:43:35;;;;;;;35.40;1.83;;;8.60;97.60;;;;;;4999113;28;20041;-73
2023/03/14 12:46:18;;;;;;;4.55;0.80;;;8.60;97.10;;;;;;5002189;28;20715;-72
2023/03/14 12:48:47;;;;;;;3.95;0.70;;;8.60;96.70;;;;;;5001606;28;20161;-73
2023/03/14 12:51:21;;;;;;;3.33;0.47;;;8.70;97.10;;;;;;5001757;28;20041;-74
2023/03/14 12:54:23;;;;;;;3.08;0.40;;;8.60;96.10;;;;;;5000960;28;20041;-72
2023/03/14 12:57:06;;;;;;;4.57;0.65;;;8.60;96.00;;;;;;4998769;28;20034;-72
2023/03/14 12:59:34;;;;;;;11.55;0.73;;;8.40;96.50;;;;;;4997758;28;20061;-74
2023/03/14 13:02:19;;;;;;;7.05;0.82;;;8.40;96.50;;;;;;5002777;28;20626;-73